Flight Track Log - Related Links

Times and Time Zones

All times are in EDT time to prevent confusion due to time zone crossing. See the DAL1830 flight status page for this flight to view local times or setup timezone preferences in your user account.

Time Position Orientation Groundspeed Altitude Reporting Facility
EDT Latitude Longitude Course Direction KTS MPH feet Rate Location/Type
Tue 07:14:03 PM 40.8014 -111.9642 101° East 166 191 4,800  Level Salt Lake Center
Tue 07:14:51 PM 40.8464 -111.9669 357° North 193 222 6,300 2,345 Climbing Salt Lake Center
Tue 07:15:53 PM 40.9147 -111.9608 North 262 302 9,100 2,293 Climbing Salt Lake Center
Tue 07:16:54 PM 40.9261 -111.8589 82° East 300 345 11,000 1,951 Climbing Salt Lake Center
Tue 07:17:00 PM 41.0755 -111.7299 148° Southeast  Level FlightAware Approximate
Tue 07:17:56 PM 40.9244 -111.7314 91° East 358 412 13,100  Level Salt Lake Center
Tue 07:18:00 PM 40.9585 -111.6341 148° Southeast  Level FlightAware Approximate
Tue 07:18:58 PM 40.9222 -111.5633 91° East 390 449 16,200  Level Salt Lake Center
Tue 07:19:00 PM 40.9120 -111.4837 101° East  Level FlightAware Approximate
Tue 07:19:59 PM 40.9106 -111.4183 96° East 399 459 18,500  Level Salt Lake Center
Tue 07:21:01 PM 40.8950 -111.2650 98° East 420 483 20,500 1,951 Climbing Salt Lake Center
Tue 07:22:02 PM 40.8736 -111.1042 100° East 442 509 22,500 1,756 Climbing Salt Lake Center
Tue 07:23:04 PM 40.8533 -110.9358 99° East 463 533 24,100 1,645 Climbing Salt Lake Center
Tue 07:24:06 PM 40.8333 -110.7611 99° East 481 554 25,900 1,854 Climbing Salt Lake Center
Tue 07:25:07 PM 40.8111 -110.5744 99° East 487 560 27,900 1,610 Climbing Salt Lake Center
Tue 07:26:09 PM 40.7861 -110.3747 99° East 495 570 29,200 1,065 Climbing Salt Lake Center
Tue 07:27:11 PM 40.7603 -110.1836 100° East 511 588 30,100 1,024 Climbing Salt Lake Center
Tue 07:28:12 PM 40.7375 -110.0006 99° East 525 604 31,300 1,512 Climbing Salt Lake Center
Tue 07:29:14 PM 40.7244 -109.7903 95° East 518 596 33,200 1,412 Climbing Salt Lake Center
Tue 07:30:28 PM 40.7128 -109.6114 95° East 512 589 34,500 1,235 Climbing Salt Lake Center
Tue 07:31:30 PM 40.6950 -109.3747 96° East 507 583 36,000 1,073 Climbing Salt Lake Center
Tue 07:32:31 PM 40.6789 -109.1872 96° East 510 587 36,700 488 Climbing Salt Lake Center
Tue 07:33:33 PM 40.6653 -109.0100 96° East 513 590 37,000 145 Climbing Salt Lake Center
Tue 07:34:35 PM 40.6492 -108.8028 96° East 512 589 37,000  Level Salt Lake Center
Tue 07:35:11 PM 40.6403 -108.6864 96° East 512 589 37,000  Level Denver Center
Tue 07:36:13 PM 40.6264 -108.5081 96° East 511 588 37,000  Level Denver Center
Tue 07:36:38 PM 40.6189 -108.4192 96° East 509 586 37,000  Level Salt Lake Center
Tue 07:37:40 PM 40.6039 -108.2447 96° East 503 579 37,000  Level Salt Lake Center
Tue 07:38:42 PM 40.5847 -108.0406 97° East 504 580 37,000  Level Salt Lake Center
Tue 07:39:19 PM 40.5778 -107.9489 96° East 508 585 37,000  Level Denver Center
Tue 07:40:22 PM 40.5603 -107.7444 96° East 506 582 37,000  Level Denver Center
Tue 07:41:24 PM 40.5450 -107.5678 96° East 505 581 37,000  Level Denver Center
Tue 07:42:26 PM 40.5258 -107.3614 97° East 508 585 37,000  Level Denver Center
Tue 07:43:28 PM 40.5367 -107.1900 85° East 501 577 37,000  Level Denver Center
Tue 07:44:30 PM 40.5647 -107.0100 78° East 500 575 37,000  Level Denver Center
Tue 07:45:32 PM 40.5919 -106.8306 79° East 499 574 37,000  Level Denver Center
Tue 07:46:34 PM 40.6192 -106.6481 79° East 505 581 37,000  Level Denver Center
Tue 07:47:36 PM 40.6497 -106.4422 79° East 500 575 37,000  Level Denver Center
Tue 07:48:38 PM 40.6781 -106.2383 80° East 506 582 37,000  Level Denver Center
Tue 07:49:40 PM 40.7039 -106.0550 79° East 506 582 37,000  Level Denver Center
Tue 07:50:42 PM 40.7308 -105.8697 79° East 508 585 37,000  Level Denver Center
Tue 07:51:44 PM 40.7561 -105.6828 80° East 512 589 37,000  Level Denver Center
Tue 07:52:46 PM 40.7808 -105.4994 80° East 504 580 37,000  Level Denver Center
Tue 07:53:48 PM 40.8067 -105.3161 79° East 502 578 37,000  Level Denver Center
Tue 07:54:50 PM 40.8317 -105.1297 80° East 508 585 37,000  Level Denver Center
Tue 07:55:52 PM 40.8556 -104.9442 80° East 508 585 37,000  Level Denver Center
Tue 07:56:54 PM 40.8839 -104.7306 80° East 500 575 37,000  Level Denver Center
Tue 07:57:56 PM 40.9072 -104.5450 80° East 505 581 37,000  Level Denver Center
Tue 07:58:58 PM 40.9311 -104.3569 80° East 511 588 37,000  Level Denver Center
Tue 08:00:00 PM 40.9553 -104.1681 80° East 514 592 37,000  Level Denver Center
Tue 08:01:02 PM 40.9783 -103.9814 81° East 510 587 37,000  Level Denver Center
Tue 08:02:04 PM 41.0022 -103.7800 81° East 511 588 37,000  Level Denver Center
Tue 08:03:06 PM 41.0236 -103.6011 81° East 515 593 37,000  Level Denver Center
Tue 08:04:08 PM 41.0489 -103.3908 81° East 519 597 37,000  Level Denver Center
Tue 08:05:10 PM 41.0703 -103.2094 81° East 522 601 37,000  Level Denver Center
Tue 08:06:12 PM 41.0936 -102.9975 82° East 521 600 37,000  Level Denver Center
Tue 08:07:14 PM 41.1108 -102.7950 83° East 526 605 37,000  Level Denver Center
Tue 08:08:16 PM 41.1261 -102.6092 84° East 529 609 37,000  Level Denver Center
Tue 08:09:19 PM 41.1422 -102.3919 84° East 530 610 37,000  Level Denver Center
Tue 08:10:21 PM 41.1553 -102.2056 85° East 528 608 37,000  Level Denver Center
Tue 08:11:23 PM 41.1692 -102.0175 84° East 533 613 37,000  Level Denver Center
Tue 08:12:25 PM 41.1850 -101.7997 84° East 532 612 37,000  Level Denver Center
Tue 08:13:27 PM 41.1983 -101.6125 85° East 531 611 37,000  Level Denver Center
Tue 08:14:29 PM 41.2133 -101.3947 85° East 529 609 37,000  Level Denver Center
Tue 08:15:31 PM 41.2253 -101.2083 85° East 527 606 37,000  Level Denver Center
Tue 08:16:33 PM 41.2400 -100.9889 85° East 530 610 37,000  Level Denver Center
Tue 08:17:35 PM 41.2511 -100.8022 85° East 526 605 37,000  Level Denver Center
Tue 08:18:37 PM 41.2631 -100.6150 85° East 527 606 37,000  Level Denver Center
Tue 08:19:39 PM 41.2756 -100.3983 86° East 523 602 37,000  Level Denver Center
Tue 08:20:41 PM 41.2858 -100.2136 86° East 522 601 37,000  Level Denver Center
Tue 08:21:43 PM 41.2989 -99.9961 85° East 526 605 37,000  Level Denver Center
Tue 08:22:44 PM 41.3089 -99.8103 86° East 525 604 37,000  Level Denver Center
Tue 08:23:46 PM 41.3200 -99.5928 86° East 527 606 37,000  Level Denver Center
Tue 08:24:48 PM 41.3297 -99.3889 86° East 530 610 37,000  Level Denver Center
Tue 08:25:50 PM 41.3394 -99.1928 86° East 529 609 37,000  Level Denver Center
Tue 08:26:52 PM 41.3483 -98.9933 87° East 531 611 37,000  Level Denver Center
Tue 08:27:30 PM 41.3539 -98.8719 86° East 531 611 37,000  Level Minneapolis Center
Tue 08:28:32 PM 41.3633 -98.6753 86° East 533 613 37,000  Level Minneapolis Center
Tue 08:29:34 PM 41.3708 -98.4783 87° East 533 613 37,000  Level Minneapolis Center
Tue 08:30:36 PM 41.4008 -98.2772 79° East 539 620 37,000  Level Minneapolis Center
Tue 08:31:38 PM 41.4586 -98.1006 66° East 538 619 37,000  Level Minneapolis Center
Tue 08:32:40 PM 41.5175 -97.9186 67° East 534 615 37,000  Level Minneapolis Center
Tue 08:33:42 PM 41.5886 -97.6978 67° East 538 619 37,000  Level Minneapolis Center
Tue 08:34:44 PM 41.6467 -97.5144 67° East 536 617 37,000  Level Minneapolis Center
Tue 08:35:46 PM 41.7061 -97.3286 67° East 539 620 37,000  Level Minneapolis Center
Tue 08:36:47 PM 41.7533 -97.1800 67° East 541 623 37,000  Level Minneapolis Center
Tue 08:37:50 PM 41.8236 -96.9539 67° East 543 625 37,000  Level Minneapolis Center
Tue 08:38:52 PM 41.8811 -96.7656 68° East 543 625 37,000  Level Minneapolis Center
Tue 08:39:54 PM 41.9397 -96.5786 67° East 542 624 37,000  Level Minneapolis Center
Tue 08:40:56 PM 42.0086 -96.3514 68° East 543 625 37,000  Level Minneapolis Center
Tue 08:41:58 PM 42.0547 -96.2011 68° East 541 623 37,000  Level Minneapolis Center
Tue 08:43:00 PM 42.1231 -95.9733 68° East 542 624 37,000  Level Minneapolis Center
Tue 08:44:02 PM 42.1800 -95.7825 68° East 544 626 37,000  Level Minneapolis Center
Tue 08:45:04 PM 42.2364 -95.5936 68° East 543 625 37,000  Level Minneapolis Center
Tue 08:46:06 PM 42.2919 -95.4044 68° East 541 623 37,000  Level Minneapolis Center
Tue 08:47:08 PM 42.3469 -95.2161 68° East 539 620 37,000  Level Minneapolis Center
Tue 08:48:10 PM 42.4128 -94.9883 69° East 540 621 37,000  Level Minneapolis Center
Tue 08:49:12 PM 42.4672 -94.7981 69° East 540 621 37,000  Level Minneapolis Center
Tue 08:50:14 PM 42.5097 -94.6450 69° East 541 623 37,000  Level Minneapolis Center
Tue 08:51:17 PM 42.5769 -94.4103 69° East 540 621 37,000  Level Minneapolis Center
Tue 08:52:19 PM 42.6125 -94.2167 76° East 531 611 37,000  Level Minneapolis Center
Tue 08:53:21 PM 42.6128 -94.0183 90° East 529 609 37,000  Level Minneapolis Center
Tue 08:54:23 PM 42.6139 -93.8189 89° East 532 612 37,000  Level Minneapolis Center
Tue 08:55:24 PM 42.6133 -93.6583 90° East 535 616 37,000  Level Minneapolis Center
Tue 08:56:27 PM 42.6167 -93.3783 89° East 536 617 37,000  Level Minneapolis Center
Tue 08:57:29 PM 42.6169 -93.1758 90° East 538 619 37,000  Level Minneapolis Center
Tue 08:58:31 PM 42.6169 -92.9758 90° East 536 617 37,000  Level Minneapolis Center
Tue 08:59:45 PM 42.6158 -92.7767 90° East 533 613 37,000  Level Minneapolis Center
Tue 09:00:47 PM 42.6139 -92.4953 90° East 537 618 37,000  Level Minneapolis Center
Tue 09:01:49 PM 42.6133 -92.2933 90° East 539 620 37,000  Level Minneapolis Center
Tue 09:02:51 PM 42.6111 -92.0906 91° East 543 625 37,000  Level Minneapolis Center
Tue 09:03:20 PM 42.6103 -92.0078 91° East 547 629 37,000  Level Chicago Center
Tue 09:04:22 PM 42.6072 -91.7669 91° East 545 627 37,000  Level Chicago Center
Tue 09:05:24 PM 42.6042 -91.5669 91° East 548 631 37,000  Level Chicago Center
Tue 09:06:26 PM 42.6019 -91.3672 91° East 545 627 37,000  Level Chicago Center
Tue 09:07:28 PM 42.5989 -91.1664 91° East 542 624 37,000  Level Chicago Center
Tue 09:08:30 PM 42.5942 -90.9222 91° East 545 627 37,000  Level Chicago Center
Tue 09:09:32 PM 42.5889 -90.7183 92° East 545 627 37,000  Level Chicago Center
Tue 09:10:34 PM 42.5850 -90.5181 91° East 538 619 37,000  Level Chicago Center
Tue 09:11:36 PM 42.5794 -90.3153 92° East 541 623 37,000  Level Chicago Center
Tue 09:12:38 PM 42.5744 -90.1144 92° East 538 619 37,000 194 Level Chicago Center
Tue 09:13:40 PM 42.5672 -89.8756 92° East 538 619 37,400 532 Climbing Chicago Center
Tue 09:14:42 PM 42.5631 -89.6728 92° East 540 621 38,100 774 Climbing Chicago Center
Tue 09:15:44 PM 42.5564 -89.4658 92° East 547 629 39,000 432 Climbing Chicago Center
Tue 09:16:47 PM 42.5486 -89.2631 93° East 543 625 39,000  Level Chicago Center
Tue 09:17:48 PM 42.5414 -89.0267 92° East 539 620 39,000  Level Chicago Center
Tue 09:18:50 PM 42.5342 -88.8258 93° East 537 618 39,000  Level Chicago Center
Tue 09:19:52 PM 42.5264 -88.6253 93° East 535 616 39,000  Level Chicago Center
Tue 09:20:54 PM 42.5181 -88.4275 93° East 530 610 39,000  Level Chicago Center
Tue 09:21:56 PM 42.5078 -88.1961 93° East 529 609 39,000  Level Chicago Center
Tue 09:22:58 PM 42.4989 -87.9978 93° East 529 609 39,000  Level Chicago Center
Tue 09:24:00 PM 42.4997 -87.7956 90° East 536 617 39,000  Level Chicago Center
Tue 09:25:02 PM 42.4992 -87.5786 90° East 535 616 39,000  Level Chicago Center
Tue 09:26:04 PM 42.4981 -87.3792 90° East 532 612 39,000  Level Chicago Center
Tue 09:27:06 PM 42.4975 -87.1817 90° East 528 608 39,000  Level Chicago Center
Tue 09:28:08 PM 42.4961 -86.9836 90° East 529 609 39,000  Level Chicago Center
Tue 09:29:10 PM 42.4933 -86.7853 91° East 529 609 39,000  Level Chicago Center
Tue 09:30:12 PM 42.4908 -86.5942 91° East 528 608 39,000  Level Chicago Center
Tue 09:31:14 PM 42.4872 -86.3561 91° East 531 611 39,000  Level Chicago Center
Tue 09:32:15 PM 42.4858 -86.1592 90° East 528 608 39,000  Level Chicago Center
Tue 09:33:17 PM 42.4819 -85.9647 91° East 525 604 39,000  Level Chicago Center
Tue 09:34:19 PM 42.4789 -85.7703 91° East 522 601 39,000  Level Chicago Center
Tue 09:35:21 PM 42.4742 -85.5758 92° East 521 600 39,000  Level Chicago Center
Tue 09:36:23 PM 42.4703 -85.3417 91° East 523 602 39,000  Level Chicago Center
Tue 09:37:25 PM 42.4653 -85.1472 92° East 521 600 39,000  Level Chicago Center
Tue 09:38:27 PM 42.4600 -84.9525 92° East 521 600 39,000  Level Chicago Center
Tue 09:39:28 PM 42.4558 -84.7567 92° East 522 601 39,000  Level Chicago Center
Tue 09:40:30 PM 42.4500 -84.5597 92° East 524 603 39,000  Level Chicago Center
Tue 09:41:26 PM 42.4403 -84.3481 93° East 520 598 39,000  Level Cleveland Center
Tue 09:42:26 PM 42.4358 -84.1564 92° East 515 593 39,000  Level Cleveland Center
Tue 09:43:26 PM 42.4292 -83.9647 93° East 515 593 39,000  Level Cleveland Center
Tue 09:44:26 PM 42.4222 -83.7672 93° East 515 593 39,000  Level Cleveland Center
Tue 09:45:26 PM 42.4186 -83.6011 92° East 515 593 39,000 -50 Level Cleveland Center
Tue 09:46:26 PM 42.4072 -83.3842 94° East 521 600 38,900 -450 Descending Cleveland Center
Tue 09:47:26 PM 42.3989 -83.2094 94° East 521 600 38,100 -450 Descending Cleveland Center
Tue 09:48:26 PM 42.3906 -83.0178 93° East 521 600 38,000 -50 Descending Cleveland Center
Tue 09:49:26 PM 42.3842 -82.8236 92° East 516 594 38,000  Level Cleveland Center
Tue 09:50:26 PM 42.3753 -82.6322 94° East 516 594 38,000  Level Cleveland Center
Tue 09:51:26 PM 42.3681 -82.4381 93° East 516 594 38,000  Level Cleveland Center
Tue 09:52:26 PM 42.3606 -82.2467 93° East 516 594 38,000  Level Cleveland Center
Tue 09:53:26 PM 42.3528 -82.0497 93° East 522 601 38,000  Level Cleveland Center
Tue 09:54:26 PM 42.3425 -81.8614 94° East 516 594 38,000  Level Cleveland Center
Tue 09:55:26 PM 42.3344 -81.6533 93° East 511 588 38,000  Level Cleveland Center
Tue 09:56:26 PM 42.3256 -81.4650 94° East 505 581 38,000  Level Cleveland Center
Tue 09:57:26 PM 42.3142 -81.2739 95° East 505 581 38,000  Level Cleveland Center
Tue 09:58:26 PM 42.3069 -81.0800 93° East 505 581 38,000  Level Cleveland Center
Tue 09:59:26 PM 42.2972 -80.8947 94° East 500 575 38,000  Level Cleveland Center
Tue 10:00:26 PM 42.2850 -80.7011 95° East 500 575 38,000  Level Cleveland Center
Tue 10:01:26 PM 42.2706 -80.5158 96° East 506 582 38,000  Level Cleveland Center
Tue 10:02:26 PM 42.2411 -80.3222 102° East 506 582 38,000  Level Cleveland Center
Tue 10:03:26 PM 42.2197 -80.1542 100° East 506 582 38,000  Level Cleveland Center
Tue 10:04:26 PM 42.1894 -79.9442 101° East 511 588 38,000  Level Cleveland Center
Tue 10:05:26 PM 42.1633 -79.7539 100° East 511 588 38,000  Level Cleveland Center
Tue 10:06:26 PM 42.1347 -79.5611 101° East 511 588 38,000  Level Cleveland Center
Tue 10:07:26 PM 42.1036 -79.3714 102° East 516 594 38,000  Level Cleveland Center
Tue 10:08:26 PM 42.0764 -79.1817 101° East 516 594 38,000  Level Cleveland Center
Tue 10:09:26 PM 42.0447 -78.9867 102° East 522 601 38,000 -50 Level Cleveland Center
Tue 10:10:26 PM 42.0169 -78.7972 101° East 522 601 37,900 -300 Descending Cleveland Center
Tue 10:11:26 PM 41.9869 -78.6108 102° East 522 601 37,400 -450 Descending Cleveland Center
Tue 10:12:26 PM 41.9583 -78.4219 101° East 522 601 37,000 -200 Descending Cleveland Center
Tue 10:13:26 PM 41.9278 -78.2358 102° East 522 601 37,000  Level Cleveland Center
Tue 10:15:05 PM 41.8781 -77.9386 103° East 516 594 37,000  Level New York Center
Tue 10:16:03 PM 41.8389 -77.7533 106° East 521 600 37,000  Level New York Center
Tue 10:17:04 PM 41.7911 -77.5731 110° East 516 594 37,000  Level New York Center
Tue 10:18:05 PM 41.7431 -77.3931 110° East 516 594 37,000  Level New York Center
Tue 10:19:03 PM 41.6947 -77.2103 109° East 516 594 37,000  Level New York Center
Tue 10:20:05 PM 41.6458 -77.0308 110° East 521 600 37,000  Level New York Center
Tue 10:21:05 PM 41.5967 -76.8542 110° East 516 594 37,000  Level New York Center
Tue 10:22:02 PM 41.5492 -76.6806 110° East 510 587 37,000  Level New York Center
Tue 10:23:03 PM 41.5125 -76.5417 109° East 505 581 37,000 -934 Level New York Center
Tue 10:24:04 PM 41.4592 -76.3489 110° East 499 574 35,100 -992 Descending New York Center
Tue 10:25:04 PM 41.4092 -76.1703 110° East 505 581 35,000 -496 Descending New York Center
Tue 10:26:05 PM 41.3606 -75.9978 111° Southeast 505 581 34,100 -1,866 Descending New York Center
Tue 10:27:03 PM 41.3058 -75.8169 112° Southeast 492 566 31,300 -2,975 Descending New York Center
Tue 10:28:04 PM 41.2625 -75.6619 110° East 497 572 28,200 -3,000 Descending New York Center
Tue 10:29:05 PM 41.2086 -75.5008 114° Southeast 489 563 25,200 -2,678 Descending New York Center
Tue 10:30:05 PM 41.1581 -75.3511 114° Southeast 461 531 22,800 -1,780 Descending New York Center
Tue 10:31:03 PM 41.1153 -75.2217 114° Southeast 425 489 21,700 -1,500 Descending New York Center
Tue 10:32:05 PM 41.0758 -75.1033 114° Southeast 379 436 19,800 -1,350 Descending New York Center
Tue 10:33:03 PM 41.0364 -74.9853 114° Southeast 345 397 19,000 -407 Descending New York Center
Tue 10:34:03 PM 40.9989 -74.8675 113° Southeast 338 389 19,000  Level New York Center
Tue 10:35:05 PM 40.9806 -74.7317 100° East 345 397 19,000  Level New York Center
Tue 10:36:03 PM 40.9681 -74.6072 98° East 339 390 19,000  Level New York Center
Tue 10:37:03 PM 40.9533 -74.4828 99° East 332 382 19,000  Level New York Center
Tue 10:38:04 PM 40.9406 -74.3586 98° East 332 382 19,000  Level New York Center
Tue 10:39:05 PM 40.9253 -74.2369 99° East 332 382 19,000  Level New York Center
Tue 10:40:05 PM 40.9039 -74.1150 103° East 332 382 19,000 -614 Level New York Center
Tue 10:41:12 PM 40.8500 -74.0000 122° Southeast 346 398 17,700 -1,714 Descending New York TRACON
Tue 10:42:18 PM 40.7833 -73.8667 123° Southeast 338 389 15,200 -1,950 Descending New York TRACON
Tue 10:43:12 PM 40.7333 -73.8000 135° Southeast 327 376 13,800 -1,842 Descending New York TRACON
Tue 10:44:12 PM 40.6667 -73.7167 137° Southeast 390 449 11,700 -2,100 Descending New York TRACON
Tue 10:45:12 PM 40.5833 -73.6833 163° South 320 368 9,600 -2,095 Descending New York TRACON
Tue 10:46:18 PM 40.4833 -73.6833 180° South 288 331 7,300 -1,686 Descending New York TRACON
Tue 10:47:13 PM 40.4333 -73.7167 207° Southwest 251 289 6,200 -1,140 Descending New York TRACON
Tue 10:48:19 PM 40.3833 -73.7833 225° Southwest 236 272 5,000 -1,000 Descending New York TRACON
Tue 10:49:19 PM 40.3500 -73.8333 229° Southwest 203 234 4,100 -923 Descending New York TRACON
Tue 10:50:03 PM 40.3433 -73.8864 261° West 200 230 3,400 -1,029 Descending New York Center
Tue 10:51:04 PM 40.3886 -73.9156 334° Northwest 138 159 2,300 -878 Descending New York Center
Tue 10:51:25 PM 40.4000 -73.9167 356° North 172 198 2,200 -222 Descending New York TRACON
Tue 10:52:25 PM 40.4500 -73.9000 14° North 164 189 2,000 -105 Descending New York TRACON
Tue 10:53:19 PM 40.4833 -73.8833 21° North 165 190 2,000  Level New York TRACON

Login

Don't have an account? Register now (free) for customized features, flight alerts, and more!